AirNav   Pilot Hours Calculator
 
 584 users online  

2I3 Rough River State Park Airport
Falls of Rough, Kentucky, USA

GOING TO FALLS OF ROUGH?


FAA INFORMATION EFFECTIVE 19 MAY 2022

Location

FAA Identifier: 2I3
Lat/Long: 37-36-35.3000N 086-30-25.8000W
37-36.588333N 086-30.430000W
37.6098056,-86.5071667
(estimated)
Elevation: 577 ft. / 175.9 m (surveyed)
Variation: 01W (1985)
From city: 3 miles NE of FALLS-OF-ROUGH, KY
Time zone: UTC -5 (UTC -6 during Standard Time)
Zip code: 40119

Airport Operations

Airport use: Open to the public
Activation date: 05/1963
Control tower: no
ARTCC: INDIANAPOLIS CENTER
FSS: LOUISVILLE FLIGHT SERVICE STATION
NOTAMs facility: LOU (NOTAM-D service available)
Attendance: UNATNDD
Wind indicator: lighted
Segmented circle: yes
Lights: ACTVT MIRL RY 2/20; REIL RY 2 & 20 - CTAF. PAPI RY 2 & 20 OPER CONTINUOUSLY.
Beacon: white-green (lighted land airport)
Operates sunset to sunrise.

Airport Communications

CTAF/UNICOM: 122.8
WX AWOS-3PT at JQD (19 nm SW): 132.1 (270-298-7936)

Nearby radio navigation aids

VOR radial/distance  VOR name  Freq  Var
MYSr217/(21.1)MYSTIC VOR108.2001W
FTKr236/31.0FORT KNOX VOR/DME109.6001W
OWBr108/32.3OWENSBORO VOR/DME108.6004W
EWOr267/39.5NEW HOPE VOR/DME110.8001E

 
NDB name  Hdg/Dist  Freq  Var  ID
GODMAN233/32.739603WGOI --. --- ..

Airport Services

Parking: tiedowns
Airframe service: NONE
Powerplant service: NONE
Bottled oxygen: NONE
Bulk oxygen: NONE

Runway Information

Runway 2/20

Dimensions: 3200 x 75 ft. / 975 x 23 m
Surface: asphalt, in good condition
Weight bearing capacity: 
Single wheel: 8.0
Runway edge lights: medium intensity
RUNWAY 2  RUNWAY 20
Latitude: 37-36.336833N37-36.841000N
Longitude: 086-30.527167W086-30.332667W
Traffic pattern: leftleft
Markings: basic, in good conditionbasic, in good condition
Visual slope indicator: 2-light PAPI on left (4.00 degrees glide path)4-light PAPI on left (5.00 degrees glide path)
Runway end identifier lights: yesyes
Obstructions: none44 ft. trees, 878 ft. from runway, 144 ft. left of centerline, 15:1 slope to clear

Airport Ownership and Management from official FAA records

Ownership: Publicly-owned
Owner: KY DEPT OF PARKS
2 HUDSON HOLLOW UNIT 1
FRANKFORT, KY 40601
Phone (502) 892-3367
Manager: MICHAEL RICKS, PARK MANAGER
450 LODGE ROAD
FALLS OF ROUGH, KY 40119
Phone 270-257-2311

Airport Operational Statistics

Aircraft operations: avg 25/day *
78% transient general aviation
13% local general aviation
7% military
2% air taxi
* for 12-month period ending 04 December 2019

Additional Remarks

TRANSPORTATION TO PARK LODGE AVAIL 270-257-2311.
FOR CD CTC INDIANAPOLIS ARTCC AT 317-247-2411.

Instrument Procedures

There are no published instrument procedures at 2I3.

Some nearby airports with instrument procedures:

I93 - Breckinridge County Airport (11 nm N)
M20 - Leitchfield-Grayson County Airport (17 nm SE)
KJQD - Ohio County Airport (19 nm SW)
KTEL - Perry County Municipal Airport (26 nm N)
KY8 - Hancock County Airport/Ron Lewis Field (26 nm NW)
 
Loc | Ops | Rwys | IFR | FBO | Links
Com | Nav | Svcs | Stats | Notes
Area around 2I3 (Rough River State Park Airport)
 
Road maps at: MapQuest Bing Google
 
Aerial photo
WARNING: Photo may not be current or correct
Aerial photo of 2I3 (Rough River State Park Airport)
Taken in December 2006

Do you have a better or more recent aerial photo of Rough River State Park Airport that you would like to share? If so, please send us your photo.

 
Sectional chart

 
Airport distance calculator
Flying to Rough River State Park Airport? Find the distance to fly.

From to 2I3

Sunrise and sunset
Times for 25-May-2022
 Local
(UTC-5)
 Zulu
(UTC)
Morning civil twilight05:0010:00
Sunrise05:3010:30
Sunset19:5500:55
Evening civil twilight20:2601:26

Current date and time
Zulu (UTC)  25-May-2022 10:19:25
Local (UTC-5)  25-May-2022 05:19:25
 
METAR
KKY8 
26nm NW 
250835Z AUTO 14005KT 10SM BKN070 BKN075 OVC100 20/20 A2998 RMK A01
KFTK 
30nm NE 
250850Z AUTO 16003KT 10SM FEW038 FEW085 SCT100 SCT120 17/17 A3002 RMK AO2 SLP165 $
KEKX 
31nm E 
250835Z AUTO 00000KT 10SM SCT026 SCT050 BKN120 18/18 A3004 RMK AO2 T01800178
KOWB 
32nm W 
250831Z AUTO 15008KT 10SM -RA SCT012 SCT038 BKN110 20/19 A2997 RMK AO2 LTG DSNT S RAB08 P0000
KM21 
39nm SW 
250835Z AUTO 15006KT 5SM -RA SCT012 BKN029 OVC048 19/19 A2998 RMK AO2 T01930186
KBWG 
39nm S 
250853Z AUTO 15006KT 10SM -RA FEW070 FEW080 SCT110 20/18 A3000 RMK AO2 RAB19E36B53 SLP155 P0001 60018 T02000183 58007
KGLW 
44nm SE 
250835Z AUTO 16003KT 7SM RA SCT055 BKN075 OVC085 19/19 A3003 RMK AO2 P0007 T01870186
KHNB 
44nm NW 
250756Z AUTO 14011KT 10SM SCT013 BKN017 OVC024 19/18 A2998 RMK AO2 SLP149 T01890178
K2I0 
45nm W 
250835Z AUTO 16006KT 10SM SCT036 BKN047 BKN060 21/19 A2997 RMK AO2 T02060185
KI19 
46nm NW 
250835Z AUTO 13007KT 10SM OVC110 17/16 A3011 RMK AO2 T01740157 PWINO
TAF
KFTK 
30nm NE 
241900Z 2419/2601 09008KT 9999 OVC018 QNH3013INS BECMG 2420/2421 10009KT 9999 SCT020 BKN050 QNH3005INS BECMG 2502/2503 12010KT 9000 -SHRA BKN035 OVC070 QNH2999INS TEMPO 2503/2506 18015G25KT 3200 -TSRA SCT010 OVC025CB BECMG 2508/2509 16008KT 4800 -SHRA BKN015 OVC020 QNH2998INS BECMG 2515/2516 18012G18KT 9999 NSW SCT020 BKN150 QNH2992INS TX28/2518Z TN17/2508Z LAST NO AMDS AFT 2503 NEXT 2511
KOWB 
32nm W 
250520Z 2506/2606 14009KT 6SM BR VCTS OVC045CB TEMPO 2506/2510 3SM TSRA BR OVC015CB FM251000 15009KT 6SM -SHRA BR VCTS BKN070CB FM251500 17012KT P6SM BKN027 FM251700 17014KT P6SM BKN035
NOTAMs
Click for the latest NOTAMs
NOTAMs are issued by the DoD/FAA and will open in a separate window not controlled by AirNav.

 

 
 

Would you like to see your business listed on this page?

 If your business provides an interesting product or service to pilots, flight crews, aircraft, or users of the Rough River State Park Airport, you should consider listing it here.  To start the listing process, click on the button below
 
Add a business
 

Other Pages about Rough River State Park Airport

Update a link
 
Copyright © AirNav, LLC. All rights reserved. Privacy Policy  Contact